CheckWX is a tool to help pilots better visualize weather data.  It is not intended as a substitute for an official pre-flight weather briefing.

13:33:15 UTC

KBBP METAR
Marlboro County Jetport - H E Avent Field Airport
Bennettsville, South Carolina, USA
Current

18 mins ago

KBBP 221315Z AUTO 09011KT 10SM BKN019 OVC028 22/17 A3017 RMK AO2
Observed
May-22 @ 13:15 UTC
Wind
  • 090° at 11 KTS
Visibility
10 SM
Flight Rules
MVFR
Cloud Levels
  • Broken at 1,900' AGL
  • Overcast at 2,800' AGL
Temperature
22°C / 72°F
Dewpoint
17°C / 63°F
Humidity
73%
Altimeter
30.17" Hg
Pressure
1021.72 hPa
Previous

38 mins ago

KBBP 221255Z AUTO 08010KT 10SM OVC019 22/17 A3017 RMK AO2
Observed
May-22 @ 12:55 UTC
Wind
  • 080° at 10 KTS
Visibility
10 SM
Flight Rules
MVFR
Cloud Levels
  • Overcast at 1,900' AGL
Temperature
22°C / 72°F
Dewpoint
17°C / 63°F
Humidity
73%
Altimeter
30.17" Hg
Pressure
1021.72 hPa
Previous

58 mins ago

KBBP 221235Z AUTO 08009KT 10SM OVC021 22/17 A3016 RMK AO2
Observed
May-22 @ 12:35 UTC
Wind
  • 080° at 9 KTS
Visibility
10 SM
Flight Rules
MVFR
Cloud Levels
  • Overcast at 2,100' AGL
Temperature
22°C / 72°F
Dewpoint
17°C / 63°F
Humidity
73%
Altimeter
30.16" Hg
Pressure
1021.32 hPa